KCOT/COT METAR and TAF weather

Enter ICAO airport designator
Station Type Date Time Source
KCOT METAR 2018/12/12 16:07 UTC NOAA

KCOT 121607Z AUTO 14005KT 10SM SCT004 13/13 A3004 RMK AO2 T01330133


Station Type Date Time Source
KCOT Decoded METAR 2018/12/12 16:07 UTC NOAA

COTULLA-LASALLE COUNTY AIRPORT , TX, United States (KCOT) 28-27N 099-13W 140M
Dec 12, 2018 - 11:07 AM EST / 2018.12.12 1607 UTC
Wind: from the SE (140 degrees) at 6 MPH (5 KT):0
Visibility: 10 mile(s):0
Sky conditions: partly cloudy
Temperature: 55.9 F (13.3 C)
Dew Point: 55.9 F (13.3 C)
Relative Humidity: 100%
Pressure (altimeter): 30.04 in. Hg (1017 hPa)
ob: KCOT 121607Z AUTO 14005KT 10SM SCT004 13/13 A3004 RMK AO2 T01330133
cycle: 16

Station Type Date Time Source
KCOT TAF UTC NOAA

Error!


Example: see airport list